createdAt,value
2019-03-06T00:00:00.029Z,1003.73
2019-03-06T00:01:00.488Z,1003.67
2019-03-06T00:02:01.105Z,1003.69
2019-03-06T00:03:01.867Z,1003.70
2019-03-06T00:04:03.455Z,1003.71
2019-03-06T00:05:03.895Z,1003.70
2019-03-06T00:06:04.472Z,1003.73
2019-03-06T00:07:04.923Z,1003.70
2019-03-06T00:08:05.398Z,1003.67
2019-03-06T00:09:05.844Z,1003.70
2019-03-06T00:10:06.444Z,1003.62
2019-03-06T00:11:06.893Z,1003.64
2019-03-06T00:12:08.550Z,1003.64
2019-03-06T00:13:09.190Z,1003.68
2019-03-06T00:14:09.754Z,1003.68
2019-03-06T00:15:10.188Z,1003.65
2019-03-06T00:16:15.702Z,1003.63
2019-03-06T00:17:16.255Z,1003.67
2019-03-06T00:18:17.762Z,1003.64
2019-03-06T00:19:18.199Z,1003.65
2019-03-06T00:20:19.725Z,1003.58
2019-03-06T00:21:20.165Z,1003.58
2019-03-06T00:22:21.720Z,1003.61
2019-03-06T00:23:22.377Z,1003.60
2019-03-06T00:24:22.925Z,1003.60
2019-03-06T00:25:23.369Z,1003.63
2019-03-06T00:26:23.862Z,1003.59
2019-03-06T00:27:24.311Z,1003.58
2019-03-06T00:28:24.836Z,1003.52
2019-03-06T00:29:25.301Z,1003.52
2019-03-06T00:30:25.786Z,1003.47
2019-03-06T00:31:26.224Z,1003.43
2019-03-06T00:32:31.779Z,1003.48
2019-03-06T00:33:32.327Z,1003.50
2019-03-06T00:34:32.931Z,1003.40
2019-03-06T00:35:38.343Z,1003.45
2019-03-06T00:36:38.915Z,1003.44
2019-03-06T00:37:39.347Z,1003.43
2019-03-06T00:38:40.850Z,1003.43
2019-03-06T00:39:41.295Z,1003.38
2019-03-06T00:40:41.885Z,1003.38
2019-03-06T00:41:47.307Z,1003.36
2019-03-06T00:44:03.786Z,1003.39
2019-03-06T00:45:04.218Z,1003.42
2019-03-06T00:46:05.755Z,1003.44
2019-03-06T00:47:06.223Z,1003.39
2019-03-06T00:48:07.707Z,1003.41
2019-03-06T00:49:08.149Z,1003.38
2019-03-06T00:50:08.666Z,1003.36
2019-03-06T00:51:09.101Z,1003.34
2019-03-06T00:52:10.773Z,1003.45
2019-03-06T00:53:11.208Z,1003.40
2019-03-06T00:54:12.802Z,1003.45
2019-03-06T00:55:13.264Z,1003.36
2019-03-06T00:56:15.778Z,1003.45
2019-03-06T00:57:16.225Z,1003.41
2019-03-06T00:58:17.021Z,1003.50
2019-03-06T00:59:17.475Z,1003.45
2019-03-06T01:00:20.010Z,1003.47
2019-03-06T01:01:20.598Z,1003.46
2019-03-06T01:02:22.096Z,1003.47
2019-03-06T01:03:22.531Z,1003.44
2019-03-06T01:04:22.968Z,1003.39
2019-03-06T01:05:23.614Z,1003.34
2019-03-06T01:06:24.058Z,1003.40
2019-03-06T01:07:24.528Z,1003.48
2019-03-06T01:08:26.280Z,1003.35
2019-03-06T01:09:26.723Z,1003.49
2019-03-06T01:10:42.993Z,1003.41
2019-03-06T01:11:43.434Z,1003.34
2019-03-06T01:12:43.903Z,1003.39
2019-03-06T01:13:44.448Z,1003.43
2019-03-06T01:14:44.879Z,1003.36
2019-03-06T01:15:51.417Z,1003.39
2019-03-06T01:16:51.857Z,1003.36
2019-03-06T01:17:57.867Z,1003.32
2019-03-06T01:18:58.304Z,1003.29
2019-03-06T01:19:58.824Z,1003.34
2019-03-06T01:20:59.269Z,1003.29
2019-03-06T01:22:02.008Z,1003.27
2019-03-06T01:23:02.489Z,1003.16
2019-03-06T01:24:03.046Z,1003.28
2019-03-06T01:25:03.542Z,1003.18
2019-03-06T01:26:04.086Z,1003.22
2019-03-06T01:27:04.543Z,1003.19
2019-03-06T01:28:05.019Z,1003.15
2019-03-06T01:29:05.459Z,1003.15
2019-03-06T01:30:05.932Z,1003.13
2019-03-06T01:31:06.371Z,1003.13
2019-03-06T01:32:07.543Z,1003.15
2019-03-06T01:33:07.981Z,1003.09
2019-03-06T01:34:08.539Z,1003.05
2019-03-06T01:35:08.975Z,1003.02
2019-03-06T01:36:09.450Z,1003.05
2019-03-06T01:37:09.912Z,1003.02
2019-03-06T01:38:10.411Z,1003.03
2019-03-06T01:39:10.865Z,1003.00
2019-03-06T01:40:18.310Z,1003.03
2019-03-06T01:41:18.744Z,1003.02
2019-03-06T01:42:19.283Z,1003.02
2019-03-06T01:43:19.726Z,1003.00
2019-03-06T01:44:20.285Z,1003.00
2019-03-06T01:45:20.719Z,1002.97
2019-03-06T01:46:21.223Z,1002.94
2019-03-06T01:47:21.687Z,1002.99
2019-03-06T01:48:22.255Z,1002.96
2019-03-06T01:49:22.692Z,1003.01
2019-03-06T01:50:24.217Z,1002.99
2019-03-06T01:51:24.651Z,1002.92
2019-03-06T01:52:25.329Z,1002.91
2019-03-06T01:53:25.773Z,1002.91
2019-03-06T01:54:26.220Z,1002.91
2019-03-06T01:55:26.659Z,1002.89
2019-03-06T01:56:27.270Z,1002.88
2019-03-06T01:57:27.719Z,1002.89
2019-03-06T01:58:28.263Z,1002.83
2019-03-06T01:59:28.711Z,1002.83
2019-03-06T02:00:31.255Z,1002.80
2019-03-06T02:01:31.695Z,1002.84
2019-03-06T02:02:33.574Z,1002.81
2019-03-06T02:03:34.002Z,1002.81
2019-03-06T02:04:34.565Z,1002.80
2019-03-06T02:05:35.007Z,1002.86
2019-03-06T02:06:35.456Z,1002.79
2019-03-06T02:07:37.091Z,1002.74
2019-03-06T02:08:37.537Z,1002.70
2019-03-06T02:09:38.082Z,1002.67
2019-03-06T02:10:38.522Z,1002.63
2019-03-06T02:11:38.961Z,1002.61
2019-03-06T02:12:39.554Z,1002.61
2019-03-06T02:13:40.006Z,1002.63
2019-03-06T02:14:40.566Z,1002.64
2019-03-06T02:15:41.000Z,1002.67
2019-03-06T02:16:42.520Z,1002.65
2019-03-06T02:17:43.001Z,1002.61
2019-03-06T02:18:43.561Z,1002.61
2019-03-06T02:19:44.002Z,1002.62
2019-03-06T02:20:44.433Z,1002.63
2019-03-06T02:21:45.320Z,1002.64
2019-03-06T02:22:45.880Z,1002.64
2019-03-06T02:23:46.316Z,1002.61
2019-03-06T02:24:46.753Z,1002.57
2019-03-06T02:25:55.895Z,1002.53
2019-03-06T02:26:56.336Z,1002.55
2019-03-06T02:28:04.856Z,1002.45
2019-03-06T02:29:10.264Z,1002.46
2019-03-06T02:30:10.771Z,1002.45
2019-03-06T02:31:11.214Z,1002.34
2019-03-06T02:32:12.729Z,1002.38
2019-03-06T02:33:13.182Z,1002.36
2019-03-06T02:34:13.724Z,1002.34
2019-03-06T02:35:14.166Z,1002.32
2019-03-06T02:36:14.704Z,1002.29
2019-03-06T02:37:15.150Z,1002.23
2019-03-06T02:38:15.726Z,1002.23
2019-03-06T02:39:16.171Z,1002.22
2019-03-06T02:40:16.698Z,1002.25
2019-03-06T02:41:17.241Z,1002.23
2019-03-06T02:42:17.702Z,1002.21
2019-03-06T02:43:18.471Z,1002.22
2019-03-06T02:44:18.959Z,1002.24
2019-03-06T02:45:19.600Z,1002.21
2019-03-06T02:46:20.047Z,1002.31
2019-03-06T02:47:20.614Z,1002.23
2019-03-06T02:48:21.072Z,1002.11
2019-03-06T02:49:21.747Z,1002.15
2019-03-06T02:50:22.563Z,1002.13
2019-03-06T02:51:24.137Z,1002.13
2019-03-06T02:52:26.259Z,1002.10
2019-03-06T02:53:26.988Z,1002.09
2019-03-06T02:54:27.427Z,1002.00
2019-03-06T02:55:27.909Z,1002.01
2019-03-06T02:56:28.470Z,1002.03
2019-03-06T02:57:29.970Z,1002.07
2019-03-06T02:58:30.433Z,1001.99
2019-03-06T02:59:31.069Z,1002.02
2019-03-06T03:00:31.503Z,1001.96
2019-03-06T03:01:32.108Z,1001.90
2019-03-06T03:02:32.744Z,1001.97
2019-03-06T03:03:34.413Z,1001.89
2019-03-06T03:04:34.850Z,1001.91
2019-03-06T03:05:35.411Z,1001.90
2019-03-06T03:06:35.845Z,1001.86
2019-03-06T03:07:36.454Z,1001.85
2019-03-06T03:08:36.927Z,1001.89
2019-03-06T03:09:37.374Z,1001.86
2019-03-06T03:10:37.816Z,1001.83
2019-03-06T03:11:38.266Z,1001.79
2019-03-06T03:12:39.154Z,1001.83
2019-03-06T03:13:39.626Z,1001.78
2019-03-06T03:14:40.191Z,1001.74
2019-03-06T03:15:40.648Z,1001.80
2019-03-06T03:16:41.326Z,1001.75
2019-03-06T03:17:41.769Z,1001.72
2019-03-06T03:18:42.412Z,1001.73
2019-03-06T03:19:42.906Z,1001.72
2019-03-06T03:20:43.502Z,1001.71
2019-03-06T03:21:44.250Z,1001.72
2019-03-06T03:22:44.847Z,1001.66
2019-03-06T03:23:45.320Z,1001.60
2019-03-06T03:24:45.989Z,1001.56
2019-03-06T03:25:46.435Z,1001.55
2019-03-06T03:26:47.025Z,1001.53
2019-03-06T03:27:47.484Z,1001.54
2019-03-06T03:28:48.099Z,1001.49
2019-03-06T03:29:48.540Z,1001.48
2019-03-06T03:30:49.414Z,1001.46
2019-03-06T03:31:49.867Z,1001.45
2019-03-06T03:32:50.573Z,1001.37
2019-03-06T03:33:51.067Z,1001.41
2019-03-06T03:34:51.690Z,1001.41
2019-03-06T03:35:52.124Z,1001.43
2019-03-06T03:36:52.727Z,1001.38
2019-03-06T03:37:53.160Z,1001.40
2019-03-06T03:38:53.805Z,1001.37
2019-03-06T03:39:54.489Z,1001.48
2019-03-06T03:40:55.006Z,1001.43
2019-03-06T03:41:55.447Z,1001.47
2019-03-06T03:42:55.941Z,1001.48
2019-03-06T03:43:56.397Z,1001.45
2019-03-06T03:44:56.969Z,1001.47
2019-03-06T03:45:57.405Z,1001.38
2019-03-06T03:46:57.919Z,1001.41
2019-03-06T03:47:58.452Z,1001.39
2019-03-06T03:48:59.199Z,1001.41
2019-03-06T03:49:59.646Z,1001.39
2019-03-06T03:51:00.196Z,1001.28
2019-03-06T03:52:00.641Z,1001.30
2019-03-06T03:53:01.142Z,1001.31
2019-03-06T03:54:01.689Z,1001.24
2019-03-06T03:55:02.198Z,1001.24
2019-03-06T03:56:02.714Z,1001.20
2019-03-06T03:57:03.193Z,1001.21
2019-03-06T03:58:04.043Z,1001.14
2019-03-06T03:59:04.502Z,1001.16
2019-03-06T04:00:04.954Z,1001.19
2019-03-06T04:01:05.398Z,1001.16
2019-03-06T04:02:05.910Z,1001.19
2019-03-06T04:03:06.346Z,1001.12
2019-03-06T04:04:06.883Z,1001.10
2019-03-06T04:05:07.326Z,1001.15
2019-03-06T04:06:07.883Z,1001.14
2019-03-06T04:07:08.489Z,1001.13
2019-03-06T04:08:09.020Z,1001.15
2019-03-06T04:09:09.485Z,1001.11
2019-03-06T04:10:10.064Z,1001.19
2019-03-06T04:11:10.685Z,1001.14
2019-03-06T04:12:11.203Z,1001.14
2019-03-06T04:13:11.678Z,1001.06
2019-03-06T04:14:12.285Z,1001.08
2019-03-06T04:15:12.757Z,1001.13
2019-03-06T04:16:19.828Z,1001.09
2019-03-06T04:17:20.437Z,1001.08
2019-03-06T04:18:20.879Z,1001.08
2019-03-06T04:19:21.420Z,1001.12
2019-03-06T04:20:21.858Z,1001.17
2019-03-06T04:21:22.419Z,1001.14
2019-03-06T04:22:22.859Z,1001.13
2019-03-06T04:23:23.353Z,1001.17
2019-03-06T04:24:23.800Z,1001.19
2019-03-06T04:25:24.403Z,1001.16
2019-03-06T04:26:24.961Z,1001.12
2019-03-06T04:27:25.534Z,1001.15
2019-03-06T04:28:27.944Z,1001.11
2019-03-06T04:29:28.662Z,1001.12
2019-03-06T04:30:29.089Z,1001.07
2019-03-06T04:31:29.655Z,1001.09
2019-03-06T04:32:30.086Z,1001.13
2019-03-06T04:33:30.592Z,1001.05
2019-03-06T04:34:31.047Z,1001.08
2019-03-06T04:35:31.629Z,1001.13
2019-03-06T04:36:32.267Z,1001.13
2019-03-06T04:37:32.706Z,1001.20
2019-03-06T04:38:33.134Z,1001.17
2019-03-06T04:39:33.722Z,1001.18
2019-03-06T04:40:34.161Z,1001.20
2019-03-06T04:41:34.625Z,1001.19
2019-03-06T04:42:35.071Z,1001.11
2019-03-06T04:43:35.623Z,1001.08
2019-03-06T04:44:36.079Z,1001.10
2019-03-06T04:45:36.887Z,1001.11
2019-03-06T04:46:37.330Z,1001.04
2019-03-06T04:47:37.769Z,1001.07
2019-03-06T04:48:38.208Z,1001.03
2019-03-06T04:49:38.778Z,1000.98
2019-03-06T04:50:39.216Z,1000.98
2019-03-06T04:51:41.823Z,1001.03
2019-03-06T04:52:42.254Z,1000.98
2019-03-06T04:53:42.762Z,1000.92
2019-03-06T04:54:43.221Z,1000.85
2019-03-06T04:55:44.109Z,1000.87
2019-03-06T04:56:44.540Z,1000.81
2019-03-06T04:57:45.140Z,1000.82
2019-03-06T04:58:45.582Z,1000.77
2019-03-06T04:59:46.214Z,1000.78
2019-03-06T05:00:46.662Z,1000.78
2019-03-06T05:01:47.218Z,1000.70
2019-03-06T05:02:47.676Z,1000.71
2019-03-06T05:03:54.296Z,1000.71
2019-03-06T05:04:54.756Z,1000.69
2019-03-06T05:05:55.547Z,1000.62
2019-03-06T05:06:55.992Z,1000.62
2019-03-06T05:07:56.579Z,1000.59
2019-03-06T05:08:57.030Z,1000.56
2019-03-06T05:09:57.646Z,1000.55
2019-03-06T05:10:58.091Z,1000.54
2019-03-06T05:11:58.537Z,1000.56
2019-03-06T05:12:59.165Z,1000.58
2019-03-06T05:13:59.601Z,1000.55
2019-03-06T05:15:00.441Z,1000.48
2019-03-06T05:16:00.874Z,1000.57
2019-03-06T05:17:01.455Z,1000.51
2019-03-06T05:18:01.894Z,1000.51
2019-03-06T05:19:02.483Z,1000.56
2019-03-06T05:20:02.949Z,1000.62
2019-03-06T05:21:03.408Z,1000.55
2019-03-06T05:22:04.037Z,1000.61
2019-03-06T05:23:04.478Z,1000.58
2019-03-06T05:24:04.990Z,1000.60
2019-03-06T05:25:05.443Z,1000.52
2019-03-06T05:26:05.889Z,1000.43
2019-03-06T05:27:06.548Z,1000.36
2019-03-06T05:28:07.066Z,1000.35
2019-03-06T05:29:07.679Z,1000.35
2019-03-06T05:30:08.123Z,1000.26
2019-03-06T05:31:08.716Z,1000.27
2019-03-06T05:32:09.154Z,1000.34
2019-03-06T05:33:09.755Z,1000.33
2019-03-06T05:34:10.427Z,1000.31
2019-03-06T05:35:11.134Z,1000.28
2019-03-06T05:36:11.608Z,1000.24
2019-03-06T05:37:12.238Z,1000.34
2019-03-06T05:38:12.716Z,1000.30
2019-03-06T05:39:13.225Z,1000.28
2019-03-06T05:40:13.701Z,1000.28
2019-03-06T05:41:15.366Z,1000.22
2019-03-06T05:42:15.801Z,1000.19
2019-03-06T05:43:16.379Z,1000.19
2019-03-06T05:44:17.080Z,1000.17
2019-03-06T05:45:17.652Z,1000.20
2019-03-06T05:46:18.090Z,1000.17
2019-03-06T05:47:18.651Z,1000.21
2019-03-06T05:48:19.089Z,1000.14
2019-03-06T05:49:19.692Z,1000.18
2019-03-06T05:50:20.452Z,1000.19
2019-03-06T05:51:21.137Z,1000.20
2019-03-06T05:52:21.572Z,1000.15
2019-03-06T05:53:23.304Z,1000.17
2019-03-06T05:54:23.744Z,1000.17
2019-03-06T05:55:24.379Z,1000.07
2019-03-06T05:56:24.833Z,1000.02
2019-03-06T05:57:25.269Z,999.96
2019-03-06T05:58:25.705Z,999.89
2019-03-06T05:59:26.146Z,999.88
2019-03-06T06:00:26.596Z,999.86
2019-03-06T06:01:27.118Z,999.78
2019-03-06T06:02:28.019Z,999.76
2019-03-06T06:03:28.752Z,999.75
2019-03-06T06:04:29.367Z,999.72
2019-03-06T06:05:29.814Z,999.78
2019-03-06T06:06:30.479Z,999.76
2019-03-06T06:07:30.922Z,999.74
2019-03-06T06:08:31.443Z,999.71
2019-03-06T06:09:31.934Z,999.64
2019-03-06T06:10:32.537Z,999.58
2019-03-06T06:11:32.971Z,999.57
2019-03-06T06:12:33.519Z,999.59
2019-03-06T06:13:33.970Z,999.48
2019-03-06T06:14:34.561Z,999.54
2019-03-06T06:15:35.013Z,999.48
2019-03-06T06:16:35.634Z,999.48
2019-03-06T06:17:36.070Z,999.51
2019-03-06T06:18:36.702Z,999.49
2019-03-06T06:19:37.144Z,999.42
2019-03-06T06:20:37.711Z,999.47
2019-03-06T06:21:38.204Z,999.49
2019-03-06T06:22:39.119Z,999.50
2019-03-06T06:23:39.561Z,999.51
2019-03-06T06:24:40.168Z,999.56
2019-03-06T06:25:40.627Z,999.52
2019-03-06T06:26:41.125Z,999.51
2019-03-06T06:27:41.557Z,999.50
2019-03-06T06:28:42.150Z,999.56
2019-03-06T06:29:42.585Z,999.54
2019-03-06T06:30:43.215Z,999.51
2019-03-06T06:31:43.658Z,999.52
2019-03-06T06:32:45.232Z,999.48
2019-03-06T06:33:45.684Z,999.53
2019-03-06T06:34:52.832Z,999.48
2019-03-06T06:35:53.284Z,999.47
2019-03-06T06:36:53.726Z,999.52
2019-03-06T06:38:01.858Z,999.55
2019-03-06T06:39:02.331Z,999.50
2019-03-06T06:40:02.895Z,999.51
2019-03-06T06:41:03.354Z,999.48
2019-03-06T06:42:03.791Z,999.46
2019-03-06T06:43:04.230Z,999.44
2019-03-06T06:44:04.949Z,999.48
2019-03-06T06:45:05.390Z,999.47
2019-03-06T06:46:07.533Z,999.35
2019-03-06T06:47:08.108Z,999.33
2019-03-06T06:48:08.552Z,999.30
2019-03-06T06:49:09.016Z,999.30
2019-03-06T06:50:09.495Z,999.28
2019-03-06T06:51:10.694Z,999.29
2019-03-06T06:52:11.131Z,999.26
2019-03-06T06:53:11.584Z,999.24
2019-03-06T06:54:12.307Z,999.24
2019-03-06T06:55:12.786Z,999.25
2019-03-06T06:56:13.223Z,999.15
2019-03-06T06:57:13.657Z,999.16
2019-03-06T06:58:14.104Z,999.13
2019-03-06T06:59:14.726Z,999.13
2019-03-06T07:00:15.450Z,999.13
2019-03-06T07:01:15.888Z,999.19
2019-03-06T07:02:16.357Z,999.06
2019-03-06T07:03:16.813Z,999.06
2019-03-06T07:04:17.601Z,999.01
2019-03-06T07:05:18.266Z,998.99
2019-03-06T07:06:19.872Z,998.94
2019-03-06T07:07:20.312Z,998.92
2019-03-06T07:08:20.910Z,998.90
2019-03-06T07:09:21.354Z,998.92
2019-03-06T07:10:21.994Z,998.83
2019-03-06T07:11:22.460Z,998.85
2019-03-06T07:12:23.100Z,998.90
2019-03-06T07:13:23.544Z,998.82
2019-03-06T07:14:24.127Z,998.86
2019-03-06T07:15:24.625Z,998.86
2019-03-06T07:16:25.265Z,998.76
2019-03-06T07:17:25.707Z,998.72
2019-03-06T07:18:26.143Z,998.74
2019-03-06T07:19:28.769Z,998.72
2019-03-06T07:20:29.231Z,998.68
2019-03-06T07:21:30.830Z,998.74
2019-03-06T07:22:31.267Z,998.69
2019-03-06T07:23:31.863Z,998.69
2019-03-06T07:24:32.576Z,998.63
2019-03-06T07:25:33.155Z,998.71
2019-03-06T07:26:33.681Z,998.60
2019-03-06T07:27:35.493Z,998.60
2019-03-06T07:28:35.941Z,998.61
2019-03-06T07:29:36.396Z,998.55
2019-03-06T07:30:39.022Z,998.61
2019-03-06T07:31:39.500Z,998.54
2019-03-06T07:32:39.958Z,998.50
2019-03-06T07:33:40.415Z,998.57
2019-03-06T07:34:41.153Z,998.47
2019-03-06T07:35:41.810Z,998.51
2019-03-06T07:36:42.253Z,998.45
2019-03-06T07:37:42.701Z,998.44
2019-03-06T07:38:43.142Z,998.45
2019-03-06T07:39:43.576Z,998.45
2019-03-06T07:40:44.044Z,998.40
2019-03-06T07:41:44.493Z,998.50
2019-03-06T07:42:44.924Z,998.43
2019-03-06T07:43:45.358Z,998.44
2019-03-06T07:44:46.083Z,998.45
2019-03-06T07:45:46.549Z,998.46
2019-03-06T07:46:47.072Z,998.45
2019-03-06T07:47:47.505Z,998.50
2019-03-06T07:48:49.030Z,998.46
2019-03-06T07:49:49.458Z,998.52
2019-03-06T07:50:49.917Z,998.55
2019-03-06T07:51:50.383Z,998.46
2019-03-06T07:52:50.826Z,998.48
2019-03-06T07:53:56.231Z,998.46
2019-03-06T07:54:56.676Z,998.47
2019-03-06T07:56:02.113Z,998.46
2019-03-06T07:57:02.561Z,998.49
2019-03-06T07:58:03.028Z,998.59
2019-03-06T07:59:03.559Z,998.46
2019-03-06T08:00:04.002Z,998.49
2019-03-06T08:01:06.564Z,998.49
2019-03-06T08:02:07.023Z,998.47
2019-03-06T08:03:07.564Z,998.41
2019-03-06T08:04:08.003Z,998.48
2019-03-06T08:05:17.305Z,998.39
2019-03-06T08:06:17.785Z,998.46
2019-03-06T08:07:18.229Z,998.42
2019-03-06T08:08:18.662Z,998.32
2019-03-06T08:09:19.094Z,998.39
2019-03-06T08:10:19.541Z,998.38
2019-03-06T08:11:19.993Z,998.38
2019-03-06T08:12:37.326Z,998.38
2019-03-06T08:13:37.766Z,998.35
2019-03-06T08:14:38.212Z,998.40
2019-03-06T08:15:38.662Z,998.37
2019-03-06T08:16:39.126Z,998.31
2019-03-06T08:18:02.647Z,998.30
2019-03-06T08:19:03.079Z,998.23
2019-03-06T08:20:25.598Z,998.22
2019-03-06T08:21:26.051Z,998.24
2019-03-06T08:22:26.622Z,998.21
2019-03-06T08:23:27.076Z,998.21
2019-03-06T08:24:27.512Z,998.24
2019-03-06T08:25:27.947Z,998.22
2019-03-06T08:26:28.581Z,998.18
2019-03-06T08:27:29.189Z,998.17
2019-03-06T08:28:29.643Z,998.15
2019-03-06T08:29:30.081Z,998.12
2019-03-06T08:30:30.552Z,998.13
2019-03-06T08:31:31.019Z,998.11
2019-03-06T08:32:31.476Z,998.05
2019-03-06T08:33:31.935Z,998.04
2019-03-06T08:34:32.426Z,997.94
2019-03-06T08:35:32.864Z,997.93
2019-03-06T08:36:33.409Z,997.97
2019-03-06T08:37:33.977Z,997.93
2019-03-06T08:38:34.406Z,997.89
2019-03-06T08:39:35.501Z,997.91
2019-03-06T08:40:36.457Z,997.98
2019-03-06T08:41:38.980Z,997.82
2019-03-06T08:42:39.423Z,997.88
2019-03-06T08:43:39.976Z,997.91
2019-03-06T08:44:40.419Z,997.86
2019-03-06T08:45:40.850Z,997.81
2019-03-06T08:46:41.293Z,997.78
2019-03-06T08:47:41.753Z,997.71
2019-03-06T08:48:42.205Z,997.76
2019-03-06T08:49:42.643Z,997.71
2019-03-06T08:50:43.097Z,997.77
2019-03-06T08:51:43.658Z,997.72
2019-03-06T08:52:44.094Z,997.69
2019-03-06T08:53:44.649Z,997.70
2019-03-06T08:54:45.101Z,997.71
2019-03-06T08:55:45.585Z,997.61
2019-03-06T08:56:46.305Z,997.66
2019-03-06T08:57:46.746Z,997.62
2019-03-06T08:58:48.369Z,997.52
2019-03-06T08:59:53.781Z,997.51
2019-03-06T09:00:54.422Z,997.46
2019-03-06T09:02:00.490Z,997.46
2019-03-06T09:03:01.304Z,997.39
2019-03-06T09:04:01.794Z,997.43
2019-03-06T09:05:02.237Z,997.44
2019-03-06T09:06:02.741Z,997.38
2019-03-06T09:07:03.224Z,997.36
2019-03-06T09:08:03.707Z,997.38
2019-03-06T09:09:04.148Z,997.38
2019-03-06T09:10:05.648Z,997.34
2019-03-06T09:11:06.089Z,997.33
2019-03-06T09:12:06.540Z,997.40
2019-03-06T09:13:12.078Z,997.38
2019-03-06T09:14:12.537Z,997.43
2019-03-06T09:15:13.060Z,997.42
2019-03-06T09:16:13.510Z,997.42
2019-03-06T09:17:14.027Z,997.47
2019-03-06T09:18:14.469Z,997.39
2019-03-06T09:19:16.154Z,997.51
2019-03-06T09:20:16.599Z,997.42
2019-03-06T09:21:18.124Z,997.38
2019-03-06T09:22:18.572Z,997.37
2019-03-06T09:23:23.255Z,997.35
2019-03-06T09:24:24.063Z,997.30
2019-03-06T09:25:24.588Z,997.31
2019-03-06T09:26:25.031Z,997.22
2019-03-06T09:27:25.683Z,997.19
2019-03-06T09:28:26.130Z,997.21
2019-03-06T09:29:27.690Z,997.12
2019-03-06T09:30:28.411Z,997.08
2019-03-06T09:31:29.956Z,997.02
2019-03-06T09:32:30.422Z,997.05
2019-03-06T09:33:30.967Z,997.07
2019-03-06T09:34:31.408Z,996.94
2019-03-06T09:35:31.930Z,996.94
2019-03-06T09:36:32.367Z,996.92
2019-03-06T09:37:32.954Z,996.87
2019-03-06T09:38:33.412Z,996.93
2019-03-06T09:39:33.878Z,997.10
2019-03-06T09:40:34.312Z,996.91
2019-03-06T09:41:34.838Z,996.87
2019-03-06T09:42:35.285Z,996.77
2019-03-06T09:43:37.823Z,996.75
2019-03-06T09:44:38.266Z,996.72
2019-03-06T09:45:38.762Z,996.68
2019-03-06T09:46:39.207Z,996.63
2019-03-06T09:47:40.749Z,996.60
2019-03-06T09:48:41.186Z,996.58
2019-03-06T09:49:41.958Z,996.55
2019-03-06T09:50:42.398Z,996.50
2019-03-06T09:51:42.834Z,996.51
2019-03-06T09:52:43.295Z,996.44
2019-03-06T09:53:43.755Z,996.41
2019-03-06T09:54:44.193Z,996.46
2019-03-06T09:55:44.629Z,996.38
2019-03-06T09:56:50.089Z,996.44
2019-03-06T09:57:50.550Z,996.35
2019-03-06T09:58:51.012Z,996.36
2019-03-06T09:59:51.691Z,996.35
2019-03-06T10:00:52.413Z,996.31
2019-03-06T10:01:52.861Z,996.35
2019-03-06T10:02:53.515Z,996.31
2019-03-06T10:03:53.955Z,996.26
2019-03-06T10:04:54.618Z,996.24
2019-03-06T10:05:55.053Z,996.13
2019-03-06T10:06:55.509Z,996.17
2019-03-06T10:07:55.988Z,996.21
2019-03-06T10:08:56.581Z,996.12
2019-03-06T10:09:59.321Z,996.10
2019-03-06T10:10:59.974Z,996.09
2019-03-06T10:12:00.428Z,996.11
2019-03-06T10:13:01.095Z,996.28
2019-03-06T10:14:01.556Z,996.02
2019-03-06T10:15:02.006Z,996.07
2019-03-06T10:16:05.193Z,995.95
2019-03-06T10:17:05.642Z,995.98
2019-03-06T10:18:11.081Z,995.97
2019-03-06T10:19:18.355Z,995.92
2019-03-06T10:20:25.096Z,995.88
2019-03-06T10:21:25.771Z,995.81
2019-03-06T10:22:26.487Z,995.78
2019-03-06T10:23:27.089Z,995.88
2019-03-06T10:24:27.543Z,995.80
2019-03-06T10:25:30.625Z,995.72
2019-03-06T10:26:32.532Z,995.71
2019-03-06T10:27:33.022Z,995.69
2019-03-06T10:28:33.467Z,995.74
2019-03-06T10:29:33.913Z,995.66
2019-03-06T10:30:34.353Z,995.56
2019-03-06T10:31:34.811Z,995.66
2019-03-06T10:32:35.295Z,995.58
2019-03-06T10:33:35.763Z,995.51
2019-03-06T10:34:36.483Z,995.50
2019-03-06T10:35:36.932Z,995.47
2019-03-06T10:36:37.423Z,995.46
2019-03-06T10:37:37.929Z,995.40
2019-03-06T10:38:38.457Z,995.36
2019-03-06T10:39:38.925Z,995.31
2019-03-06T10:40:39.389Z,995.32
2019-03-06T10:41:39.855Z,995.34
2019-03-06T10:42:40.328Z,995.42
2019-03-06T10:43:48.899Z,995.46
2019-03-06T10:44:47.188Z,995.56
2019-03-06T10:45:49.166Z,995.34
2019-03-06T10:46:49.655Z,995.26
2019-03-06T10:47:50.228Z,995.44
2019-03-06T10:48:50.691Z,995.38
2019-03-06T10:49:51.541Z,995.43
2019-03-06T10:50:51.999Z,995.40
2019-03-06T10:51:52.489Z,995.35
2019-03-06T10:52:53.035Z,995.40
2019-03-06T10:53:53.533Z,995.37
2019-03-06T10:54:54.246Z,995.40
2019-03-06T10:55:54.738Z,995.51
2019-03-06T10:56:55.242Z,995.43
2019-03-06T10:57:55.728Z,995.43
2019-03-06T10:58:56.228Z,995.51
2019-03-06T10:59:56.831Z,995.33
2019-03-06T11:00:57.345Z,995.36
2019-03-06T11:01:57.882Z,995.35
2019-03-06T11:02:58.388Z,995.45
2019-03-06T11:03:58.852Z,995.43
2019-03-06T11:04:59.317Z,995.31
2019-03-06T11:05:59.771Z,995.36
2019-03-06T11:07:00.238Z,995.40
2019-03-06T11:08:01.000Z,995.31
2019-03-06T11:09:01.496Z,995.38
2019-03-06T11:12:44.629Z,995.21
2019-03-06T11:13:45.103Z,995.14
2019-03-06T11:16:55.388Z,995.12
2019-03-06T11:17:56.154Z,995.09
2019-03-06T11:18:57.128Z,995.03
2019-03-06T11:19:57.686Z,995.08
2019-03-06T11:20:58.135Z,995.05
2019-03-06T11:21:58.576Z,995.04
2019-03-06T11:22:59.051Z,995.03
2019-03-06T11:23:59.523Z,995.02
2019-03-06T11:24:59.967Z,994.98
2019-03-06T11:26:01.939Z,995.00
2019-03-06T11:27:02.433Z,994.90
2019-03-06T11:28:02.900Z,994.90
2019-03-06T11:29:03.379Z,994.94
2019-03-06T11:30:03.835Z,994.87
2019-03-06T11:31:04.385Z,994.91
2019-03-06T11:32:04.837Z,994.91
2019-03-06T11:33:05.311Z,994.82
2019-03-06T11:34:05.771Z,994.72
2019-03-06T11:35:06.305Z,994.83
2019-03-06T11:36:06.756Z,994.71
2019-03-06T11:37:07.255Z,994.71
2019-03-06T11:38:07.741Z,994.80
2019-03-06T11:39:08.193Z,994.64
2019-03-06T11:40:09.046Z,994.66
2019-03-06T11:41:09.504Z,994.65
2019-03-06T11:42:09.953Z,994.73
2019-03-06T11:43:10.547Z,994.64
2019-03-06T11:44:10.997Z,994.62
2019-03-06T11:45:32.540Z,994.56
2019-03-06T11:46:33.016Z,994.60
2019-03-06T11:47:34.498Z,994.61
2019-03-06T11:48:34.969Z,994.52
2019-03-06T11:49:35.733Z,994.53
2019-03-06T11:50:40.778Z,994.48
2019-03-06T11:51:42.621Z,994.47
2019-03-06T11:52:43.243Z,994.47
2019-03-06T11:53:44.819Z,994.40
2019-03-06T11:54:45.260Z,994.35
2019-03-06T11:56:00.290Z,994.42
2019-03-06T11:57:00.739Z,994.36
2019-03-06T11:58:23.349Z,994.36
2019-03-06T11:59:23.800Z,994.27
2019-03-06T12:01:47.536Z,994.24
2019-03-06T12:05:24.345Z,994.06
2019-03-06T12:06:45.900Z,994.06
2019-03-06T12:07:46.490Z,994.10
2019-03-06T12:11:46.545Z,993.93
2019-03-06T12:12:47.005Z,994.06
2019-03-06T12:15:58.136Z,993.95
2019-03-06T12:17:35.568Z,993.89
2019-03-06T12:18:36.052Z,993.80
2019-03-06T12:21:46.074Z,993.68
2019-03-06T12:22:46.531Z,993.66
2019-03-06T12:26:01.379Z,993.45
2019-03-06T12:27:01.881Z,993.39
2019-03-06T12:30:13.013Z,993.43
2019-03-06T12:31:51.440Z,993.39
2019-03-06T12:32:51.881Z,993.40
2019-03-06T12:33:53.425Z,993.30
2019-03-06T12:34:53.865Z,993.31
2019-03-06T12:38:11.006Z,993.27
2019-03-06T12:39:19.470Z,993.25
2019-03-06T12:40:19.921Z,993.20
2019-03-06T12:41:20.401Z,993.21
2019-03-06T12:42:56.958Z,993.22
2019-03-06T12:43:57.424Z,993.22
2019-03-06T12:45:19.991Z,993.20
2019-03-06T12:46:23.762Z,993.15
2019-03-06T12:47:24.636Z,993.23
2019-03-06T12:50:55.179Z,993.11
2019-03-06T12:52:01.200Z,993.14
2019-03-06T12:53:01.680Z,993.09
2019-03-06T12:54:21.792Z,993.14
2019-03-06T12:55:22.234Z,993.04
2019-03-06T12:56:24.781Z,992.98
2019-03-06T12:57:25.859Z,993.03
2019-03-06T12:58:28.478Z,993.02
2019-03-06T12:59:28.941Z,993.00